sensor_id;sensor_type;location;lat;lon;timestamp;P1;durP1;ratioP1;P2;durP2;ratioP2
24337;SDS011;12457;50.832;4.346;2022-08-21T00:02:23;13.48;;;3.20;;
24337;SDS011;12457;50.832;4.346;2022-08-21T00:04:51;11.48;;;3.92;;
24337;SDS011;12457;50.832;4.346;2022-08-21T00:07:17;12.52;;;3.20;;
24337;SDS011;12457;50.832;4.346;2022-08-21T00:09:46;8.85;;;2.97;;
24337;SDS011;12457;50.832;4.346;2022-08-21T00:12:15;14.82;;;3.28;;
24337;SDS011;12457;50.832;4.346;2022-08-21T00:14:41;13.38;;;3.47;;
24337;SDS011;12457;50.832;4.346;2022-08-21T00:17:06;7.97;;;3.67;;
24337;SDS011;12457;50.832;4.346;2022-08-21T00:19:33;16.63;;;4.20;;
24337;SDS011;12457;50.832;4.346;2022-08-21T00:21:59;16.40;;;4.13;;
24337;SDS011;12457;50.832;4.346;2022-08-21T00:24:24;9.93;;;3.38;;
24337;SDS011;12457;50.832;4.346;2022-08-21T00:26:51;11.63;;;3.70;;
24337;SDS011;12457;50.832;4.346;2022-08-21T00:29:17;10.40;;;3.75;;
24337;SDS011;12457;50.832;4.346;2022-08-21T00:31:43;11.85;;;3.30;;
24337;SDS011;12457;50.832;4.346;2022-08-21T00:34:10;11.88;;;3.72;;
24337;SDS011;12457;50.832;4.346;2022-08-21T00:36:37;9.82;;;3.42;;
24337;SDS011;12457;50.832;4.346;2022-08-21T00:39:07;12.55;;;3.83;;
24337;SDS011;12457;50.832;4.346;2022-08-21T00:41:35;9.85;;;3.80;;
24337;SDS011;12457;50.832;4.346;2022-08-21T00:44:08;9.85;;;3.72;;
24337;SDS011;12457;50.832;4.346;2022-08-21T00:46:43;10.43;;;3.50;;
24337;SDS011;12457;50.832;4.346;2022-08-21T00:49:09;14.55;;;3.55;;
24337;SDS011;12457;50.832;4.346;2022-08-21T00:51:42;10.68;;;3.55;;
24337;SDS011;12457;50.832;4.346;2022-08-21T00:54:20;9.23;;;3.15;;
24337;SDS011;12457;50.832;4.346;2022-08-21T00:56:50;13.77;;;3.78;;
24337;SDS011;12457;50.832;4.346;2022-08-21T00:59:21;11.20;;;3.63;;
24337;SDS011;12457;50.832;4.346;2022-08-21T01:01:48;11.90;;;3.67;;
24337;SDS011;12457;50.832;4.346;2022-08-21T01:04:15;14.07;;;4.18;;
24337;SDS011;12457;50.832;4.346;2022-08-21T01:06:42;13.27;;;3.60;;
24337;SDS011;12457;50.832;4.346;2022-08-21T01:09:08;11.27;;;3.83;;
24337;SDS011;12457;50.832;4.346;2022-08-21T01:11:39;16.90;;;4.35;;
24337;SDS011;12457;50.832;4.346;2022-08-21T01:14:07;15.85;;;3.75;;
24337;SDS011;12457;50.832;4.346;2022-08-21T01:16:37;8.95;;;3.25;;
24337;SDS011;12457;50.832;4.346;2022-08-21T01:19:06;16.33;;;3.63;;
24337;SDS011;12457;50.832;4.346;2022-08-21T01:21:34;9.65;;;3.30;;
24337;SDS011;12457;50.832;4.346;2022-08-21T01:24:00;10.70;;;3.17;;
24337;SDS011;12457;50.832;4.346;2022-08-21T01:26:28;14.00;;;4.00;;
24337;SDS011;12457;50.832;4.346;2022-08-21T01:31:28;10.63;;;2.75;;
24337;SDS011;12457;50.832;4.346;2022-08-21T01:33:56;6.90;;;3.05;;
24337;SDS011;12457;50.832;4.346;2022-08-21T01:36:22;8.68;;;3.08;;
24337;SDS011;12457;50.832;4.346;2022-08-21T01:38:49;12.95;;;3.28;;
24337;SDS011;12457;50.832;4.346;2022-08-21T01:41:15;8.32;;;2.63;;
24337;SDS011;12457;50.832;4.346;2022-08-21T01:43:42;13.35;;;3.10;;
24337;SDS011;12457;50.832;4.346;2022-08-21T01:46:09;11.75;;;3.10;;
24337;SDS011;12457;50.832;4.346;2022-08-21T01:48:39;12.68;;;2.75;;
24337;SDS011;12457;50.832;4.346;2022-08-21T01:51:08;10.80;;;3.00;;
24337;SDS011;12457;50.832;4.346;2022-08-21T01:53:37;10.75;;;2.88;;
24337;SDS011;12457;50.832;4.346;2022-08-21T01:56:05;10.80;;;2.80;;
24337;SDS011;12457;50.832;4.346;2022-08-21T01:58:32;10.27;;;3.33;;
24337;SDS011;12457;50.832;4.346;2022-08-21T02:00:59;7.53;;;2.53;;
24337;SDS011;12457;50.832;4.346;2022-08-21T02:03:26;10.85;;;3.20;;
24337;SDS011;12457;50.832;4.346;2022-08-21T02:05:53;8.18;;;2.50;;
24337;SDS011;12457;50.832;4.346;2022-08-21T02:08:20;10.05;;;3.22;;
24337;SDS011;12457;50.832;4.346;2022-08-21T02:10:50;8.65;;;3.28;;
24337;SDS011;12457;50.832;4.346;2022-08-21T02:13:16;6.75;;;3.08;;
24337;SDS011;12457;50.832;4.346;2022-08-21T02:15:42;11.35;;;2.67;;
24337;SDS011;12457;50.832;4.346;2022-08-21T02:18:10;12.95;;;3.45;;
24337;SDS011;12457;50.832;4.346;2022-08-21T02:20:39;8.13;;;2.78;;
24337;SDS011;12457;50.832;4.346;2022-08-21T02:23:07;8.60;;;2.47;;
24337;SDS011;12457;50.832;4.346;2022-08-21T02:25:34;11.60;;;3.30;;
24337;SDS011;12457;50.832;4.346;2022-08-21T02:28:02;11.57;;;2.83;;
24337;SDS011;12457;50.832;4.346;2022-08-21T02:30:30;9.05;;;2.97;;
24337;SDS011;12457;50.832;4.346;2022-08-21T02:32:59;12.43;;;2.85;;
24337;SDS011;12457;50.832;4.346;2022-08-21T02:35:24;9.75;;;2.45;;
24337;SDS011;12457;50.832;4.346;2022-08-21T02:37:52;12.38;;;2.63;;
24337;SDS011;12457;50.832;4.346;2022-08-21T02:40:24;8.02;;;2.47;;
24337;SDS011;12457;50.832;4.346;2022-08-21T02:42:52;8.38;;;2.42;;
24337;SDS011;12457;50.832;4.346;2022-08-21T02:45:18;9.45;;;2.30;;
24337;SDS011;12457;50.832;4.346;2022-08-21T02:47:51;11.73;;;2.10;;
24337;SDS011;12457;50.832;4.346;2022-08-21T02:50:20;13.52;;;2.22;;
24337;SDS011;12457;50.832;4.346;2022-08-21T02:52:48;9.55;;;2.72;;
24337;SDS011;12457;50.832;4.346;2022-08-21T02:55:15;14.93;;;2.97;;
24337;SDS011;12457;50.832;4.346;2022-08-21T02:57:41;12.68;;;3.22;;
24337;SDS011;12457;50.832;4.346;2022-08-21T03:00:07;12.93;;;2.67;;
24337;SDS011;12457;50.832;4.346;2022-08-21T03:02:36;8.60;;;2.50;;
24337;SDS011;12457;50.832;4.346;2022-08-21T03:05:03;8.85;;;2.78;;
24337;SDS011;12457;50.832;4.346;2022-08-21T03:07:32;13.13;;;2.75;;
24337;SDS011;12457;50.832;4.346;2022-08-21T03:09:59;9.88;;;2.67;;
24337;SDS011;12457;50.832;4.346;2022-08-21T03:12:26;6.47;;;2.30;;
24337;SDS011;12457;50.832;4.346;2022-08-21T03:14:51;8.70;;;2.63;;
24337;SDS011;12457;50.832;4.346;2022-08-21T03:17:20;10.25;;;2.63;;
24337;SDS011;12457;50.832;4.346;2022-08-21T03:19:52;11.50;;;2.70;;
24337;SDS011;12457;50.832;4.346;2022-08-21T03:22:18;12.65;;;2.60;;
24337;SDS011;12457;50.832;4.346;2022-08-21T03:24:44;10.05;;;2.42;;
24337;SDS011;12457;50.832;4.346;2022-08-21T03:27:10;12.40;;;2.60;;
24337;SDS011;12457;50.832;4.346;2022-08-21T03:29:38;11.15;;;2.42;;
24337;SDS011;12457;50.832;4.346;2022-08-21T03:32:04;6.80;;;2.10;;
24337;SDS011;12457;50.832;4.346;2022-08-21T03:34:34;7.90;;;2.80;;
24337;SDS011;12457;50.832;4.346;2022-08-21T03:37:01;12.35;;;2.47;;
24337;SDS011;12457;50.832;4.346;2022-08-21T03:39:28;22.80;;;3.53;;
24337;SDS011;12457;50.832;4.346;2022-08-21T03:41:54;12.30;;;2.92;;
24337;SDS011;12457;50.832;4.346;2022-08-21T03:44:20;10.35;;;2.15;;
24337;SDS011;12457;50.832;4.346;2022-08-21T03:46:46;8.90;;;2.42;;
24337;SDS011;12457;50.832;4.346;2022-08-21T03:49:12;10.68;;;2.38;;
24337;SDS011;12457;50.832;4.346;2022-08-21T03:51:38;7.93;;;2.38;;
24337;SDS011;12457;50.832;4.346;2022-08-21T03:54:03;8.77;;;2.60;;
24337;SDS011;12457;50.832;4.346;2022-08-21T03:56:29;10.02;;;2.83;;
24337;SDS011;12457;50.832;4.346;2022-08-21T03:58:55;17.23;;;2.72;;
24337;SDS011;12457;50.832;4.346;2022-08-21T04:01:24;9.25;;;2.50;;
24337;SDS011;12457;50.832;4.346;2022-08-21T04:03:52;10.98;;;2.40;;
24337;SDS011;12457;50.832;4.346;2022-08-21T04:06:18;8.50;;;2.38;;
24337;SDS011;12457;50.832;4.346;2022-08-21T04:08:52;8.65;;;2.78;;
24337;SDS011;12457;50.832;4.346;2022-08-21T04:11:18;11.27;;;2.50;;
24337;SDS011;12457;50.832;4.346;2022-08-21T04:13:44;7.47;;;2.58;;
24337;SDS011;12457;50.832;4.346;2022-08-21T04:16:12;10.63;;;2.88;;
24337;SDS011;12457;50.832;4.346;2022-08-21T04:18:43;10.30;;;2.92;;
24337;SDS011;12457;50.832;4.346;2022-08-21T04:21:09;8.90;;;2.58;;
24337;SDS011;12457;50.832;4.346;2022-08-21T04:23:36;14.90;;;3.13;;
24337;SDS011;12457;50.832;4.346;2022-08-21T04:26:02;11.32;;;2.95;;
24337;SDS011;12457;50.832;4.346;2022-08-21T04:28:29;14.50;;;3.92;;
24337;SDS011;12457;50.832;4.346;2022-08-21T04:30:58;17.17;;;3.42;;
24337;SDS011;12457;50.832;4.346;2022-08-21T04:33:26;10.13;;;3.03;;
24337;SDS011;12457;50.832;4.346;2022-08-21T04:35:52;8.38;;;3.13;;
24337;SDS011;12457;50.832;4.346;2022-08-21T04:38:18;10.98;;;3.03;;
24337;SDS011;12457;50.832;4.346;2022-08-21T04:40:44;9.75;;;2.80;;
24337;SDS011;12457;50.832;4.346;2022-08-21T04:43:13;14.35;;;3.28;;
24337;SDS011;12457;50.832;4.346;2022-08-21T04:45:44;6.90;;;2.78;;
24337;SDS011;12457;50.832;4.346;2022-08-21T04:48:15;9.13;;;2.60;;
24337;SDS011;12457;50.832;4.346;2022-08-21T04:50:59;8.02;;;2.80;;
24337;SDS011;12457;50.832;4.346;2022-08-21T04:53:36;13.00;;;3.40;;
24337;SDS011;12457;50.832;4.346;2022-08-21T04:59:02;13.88;;;3.88;;
24337;SDS011;12457;50.832;4.346;2022-08-21T05:01:35;10.57;;;3.67;;
24337;SDS011;12457;50.832;4.346;2022-08-21T05:04:02;11.18;;;3.53;;
24337;SDS011;12457;50.832;4.346;2022-08-21T05:06:30;10.00;;;3.35;;
24337;SDS011;12457;50.832;4.346;2022-08-21T05:09:00;8.20;;;3.53;;
24337;SDS011;12457;50.832;4.346;2022-08-21T05:11:26;10.00;;;4.10;;
24337;SDS011;12457;50.832;4.346;2022-08-21T05:13:52;10.30;;;3.33;;
24337;SDS011;12457;50.832;4.346;2022-08-21T05:16:18;12.30;;;3.45;;
24337;SDS011;12457;50.832;4.346;2022-08-21T05:18:44;10.93;;;2.67;;
24337;SDS011;12457;50.832;4.346;2022-08-21T05:21:10;13.55;;;3.75;;
24337;SDS011;12457;50.832;4.346;2022-08-21T05:23:39;11.20;;;3.60;;
24337;SDS011;12457;50.832;4.346;2022-08-21T05:26:04;11.52;;;3.55;;
24337;SDS011;12457;50.832;4.346;2022-08-21T05:28:34;10.05;;;2.95;;
24337;SDS011;12457;50.832;4.346;2022-08-21T05:31:00;10.85;;;2.60;;
24337;SDS011;12457;50.832;4.346;2022-08-21T05:33:26;9.57;;;2.63;;
24337;SDS011;12457;50.832;4.346;2022-08-21T05:35:55;11.02;;;2.67;;
24337;SDS011;12457;50.832;4.346;2022-08-21T05:38:24;9.05;;;2.38;;
24337;SDS011;12457;50.832;4.346;2022-08-21T05:40:52;9.55;;;2.80;;
24337;SDS011;12457;50.832;4.346;2022-08-21T05:43:18;9.30;;;2.80;;
24337;SDS011;12457;50.832;4.346;2022-08-21T05:45:46;8.73;;;2.30;;
24337;SDS011;12457;50.832;4.346;2022-08-21T05:48:18;12.48;;;2.30;;
24337;SDS011;12457;50.832;4.346;2022-08-21T05:50:46;8.77;;;2.42;;
24337;SDS011;12457;50.832;4.346;2022-08-21T05:53:13;7.32;;;2.13;;
24337;SDS011;12457;50.832;4.346;2022-08-21T05:55:41;8.30;;;2.33;;
24337;SDS011;12457;50.832;4.346;2022-08-21T05:58:07;9.02;;;2.28;;
24337;SDS011;12457;50.832;4.346;2022-08-21T06:00:33;7.97;;;2.33;;
24337;SDS011;12457;50.832;4.346;2022-08-21T06:02:59;7.47;;;2.33;;
24337;SDS011;12457;50.832;4.346;2022-08-21T06:05:25;9.98;;;3.00;;
24337;SDS011;12457;50.832;4.346;2022-08-21T06:07:51;7.82;;;2.20;;
24337;SDS011;12457;50.832;4.346;2022-08-21T06:10:18;5.00;;;1.90;;
24337;SDS011;12457;50.832;4.346;2022-08-21T06:12:44;8.07;;;2.22;;
24337;SDS011;12457;50.832;4.346;2022-08-21T06:15:20;8.13;;;2.10;;
24337;SDS011;12457;50.832;4.346;2022-08-21T06:17:46;8.40;;;2.25;;
24337;SDS011;12457;50.832;4.346;2022-08-21T06:20:15;7.22;;;2.13;;
24337;SDS011;12457;50.832;4.346;2022-08-21T06:22:46;13.55;;;2.30;;
24337;SDS011;12457;50.832;4.346;2022-08-21T06:25:12;7.40;;;2.03;;
24337;SDS011;12457;50.832;4.346;2022-08-21T06:27:37;7.65;;;2.00;;
24337;SDS011;12457;50.832;4.346;2022-08-21T06:30:06;7.97;;;2.50;;
24337;SDS011;12457;50.832;4.346;2022-08-21T06:32:56;9.30;;;1.88;;
24337;SDS011;12457;50.832;4.346;2022-08-21T06:35:22;8.32;;;2.33;;
24337;SDS011;12457;50.832;4.346;2022-08-21T06:37:49;14.60;;;2.58;;
24337;SDS011;12457;50.832;4.346;2022-08-21T06:40:15;13.25;;;2.83;;
24337;SDS011;12457;50.832;4.346;2022-08-21T06:42:42;10.52;;;3.03;;
24337;SDS011;12457;50.832;4.346;2022-08-21T06:45:08;9.20;;;2.40;;
24337;SDS011;12457;50.832;4.346;2022-08-21T06:47:34;7.10;;;2.47;;
24337;SDS011;12457;50.832;4.346;2022-08-21T06:50:00;9.57;;;2.47;;
24337;SDS011;12457;50.832;4.346;2022-08-21T06:52:27;9.80;;;2.50;;
24337;SDS011;12457;50.832;4.346;2022-08-21T06:54:56;6.93;;;2.63;;
24337;SDS011;12457;50.832;4.346;2022-08-21T06:57:23;6.38;;;2.00;;
24337;SDS011;12457;50.832;4.346;2022-08-21T06:59:54;11.32;;;2.60;;
24337;SDS011;12457;50.832;4.346;2022-08-21T07:02:54;10.30;;;2.45;;
24337;SDS011;12457;50.832;4.346;2022-08-21T07:05:26;6.75;;;2.88;;
24337;SDS011;12457;50.832;4.346;2022-08-21T07:07:56;12.57;;;2.30;;
24337;SDS011;12457;50.832;4.346;2022-08-21T07:10:26;10.02;;;2.70;;
24337;SDS011;12457;50.832;4.346;2022-08-21T07:13:00;9.57;;;2.42;;
24337;SDS011;12457;50.832;4.346;2022-08-21T07:15:28;10.65;;;3.40;;
24337;SDS011;12457;50.832;4.346;2022-08-21T07:18:02;16.20;;;3.72;;
24337;SDS011;12457;50.832;4.346;2022-08-21T07:23:27;16.35;;;2.80;;
24337;SDS011;12457;50.832;4.346;2022-08-21T07:26:09;9.77;;;2.55;;
24337;SDS011;12457;50.832;4.346;2022-08-21T07:28:36;8.82;;;2.40;;
24337;SDS011;12457;50.832;4.346;2022-08-21T07:31:05;11.98;;;2.50;;
24337;SDS011;12457;50.832;4.346;2022-08-21T07:33:44;10.48;;;2.50;;
24337;SDS011;12457;50.832;4.346;2022-08-21T07:36:27;9.00;;;2.42;;
24337;SDS011;12457;50.832;4.346;2022-08-21T07:38:56;15.65;;;2.72;;
24337;SDS011;12457;50.832;4.346;2022-08-21T07:41:23;12.05;;;2.22;;
24337;SDS011;12457;50.832;4.346;2022-08-21T07:43:57;10.50;;;2.42;;
24337;SDS011;12457;50.832;4.346;2022-08-21T07:46:30;13.80;;;2.50;;
24337;SDS011;12457;50.832;4.346;2022-08-21T07:49:09;11.10;;;2.95;;
24337;SDS011;12457;50.832;4.346;2022-08-21T07:51:40;8.90;;;2.13;;
24337;SDS011;12457;50.832;4.346;2022-08-21T08:00:01;8.60;;;2.03;;
24337;SDS011;12457;50.832;4.346;2022-08-21T08:02:28;8.10;;;2.28;;
24337;SDS011;12457;50.832;4.346;2022-08-21T08:07:44;11.13;;;3.63;;
24337;SDS011;12457;50.832;4.346;2022-08-21T08:10:10;29.50;;;8.27;;
24337;SDS011;12457;50.832;4.346;2022-08-21T08:12:37;20.33;;;6.13;;
24337;SDS011;12457;50.832;4.346;2022-08-21T08:15:07;17.52;;;4.80;;
24337;SDS011;12457;50.832;4.346;2022-08-21T08:17:40;8.70;;;2.78;;
24337;SDS011;12457;50.832;4.346;2022-08-21T08:20:32;8.13;;;2.15;;
24337;SDS011;12457;50.832;4.346;2022-08-21T08:22:58;8.70;;;2.13;;
24337;SDS011;12457;50.832;4.346;2022-08-21T08:25:33;9.90;;;2.10;;
24337;SDS011;12457;50.832;4.346;2022-08-21T08:30:58;12.32;;;2.25;;
24337;SDS011;12457;50.832;4.346;2022-08-21T08:33:34;10.63;;;2.10;;
24337;SDS011;12457;50.832;4.346;2022-08-21T08:36:17;5.93;;;1.85;;
24337;SDS011;12457;50.832;4.346;2022-08-21T08:38:44;12.80;;;2.38;;
24337;SDS011;12457;50.832;4.346;2022-08-21T08:44:41;10.65;;;2.28;;
24337;SDS011;12457;50.832;4.346;2022-08-21T08:47:25;16.92;;;2.95;;
24337;SDS011;12457;50.832;4.346;2022-08-21T08:50:07;8.60;;;2.67;;
24337;SDS011;12457;50.832;4.346;2022-08-21T08:52:49;10.18;;;2.72;;
24337;SDS011;12457;50.832;4.346;2022-08-21T08:58:18;13.73;;;2.15;;
24337;SDS011;12457;50.832;4.346;2022-08-21T09:01:18;9.60;;;2.35;;
24337;SDS011;12457;50.832;4.346;2022-08-21T09:03:45;11.10;;;2.00;;
24337;SDS011;12457;50.832;4.346;2022-08-21T09:12:38;11.45;;;2.53;;
24337;SDS011;12457;50.832;4.346;2022-08-21T09:18:25;9.02;;;2.35;;
24337;SDS011;12457;50.832;4.346;2022-08-21T09:27:18;10.77;;;2.67;;
24337;SDS011;12457;50.832;4.346;2022-08-21T09:29:51;7.88;;;2.10;;
24337;SDS011;12457;50.832;4.346;2022-08-21T09:32:28;7.85;;;2.60;;
24337;SDS011;12457;50.832;4.346;2022-08-21T09:37:31;9.23;;;1.90;;
24337;SDS011;12457;50.832;4.346;2022-08-21T09:43:00;14.32;;;2.10;;
24337;SDS011;12457;50.832;4.346;2022-08-21T09:45:42;10.32;;;2.55;;
24337;SDS011;12457;50.832;4.346;2022-08-21T09:48:21;8.13;;;2.13;;
24337;SDS011;12457;50.832;4.346;2022-08-21T09:56:56;13.55;;;2.08;;
24337;SDS011;12457;50.832;4.346;2022-08-21T10:02:50;10.40;;;2.67;;
24337;SDS011;12457;50.832;4.346;2022-08-21T10:05:25;14.23;;;2.95;;
24337;SDS011;12457;50.832;4.346;2022-08-21T10:07:56;14.93;;;2.40;;
24337;SDS011;12457;50.832;4.346;2022-08-21T10:10:41;17.80;;;3.33;;
24337;SDS011;12457;50.832;4.346;2022-08-21T10:25:26;13.15;;;2.40;;
24337;SDS011;12457;50.832;4.346;2022-08-21T10:28:16;12.75;;;3.42;;
24337;SDS011;12457;50.832;4.346;2022-08-21T10:37:18;10.93;;;2.47;;
24337;SDS011;12457;50.832;4.346;2022-08-21T10:49:16;10.38;;;2.55;;
24337;SDS011;12457;50.832;4.346;2022-08-21T10:55:04;11.82;;;2.42;;
24337;SDS011;12457;50.832;4.346;2022-08-21T11:00:49;12.27;;;3.17;;
24337;SDS011;12457;50.832;4.346;2022-08-21T11:03:39;11.23;;;2.70;;
24337;SDS011;12457;50.832;4.346;2022-08-21T11:06:15;12.20;;;2.85;;
24337;SDS011;12457;50.832;4.346;2022-08-21T11:09:11;12.75;;;2.40;;
24337;SDS011;12457;50.832;4.346;2022-08-21T11:17:27;13.68;;;2.60;;
24337;SDS011;12457;50.832;4.346;2022-08-21T11:23:46;10.38;;;2.60;;
24337;SDS011;12457;50.832;4.346;2022-08-21T11:26:34;13.90;;;3.08;;
24337;SDS011;12457;50.832;4.346;2022-08-21T11:29:10;8.98;;;2.28;;
24337;SDS011;12457;50.832;4.346;2022-08-21T11:56:34;8.40;;;2.55;;
24337;SDS011;12457;50.832;4.346;2022-08-21T11:59:36;11.32;;;2.70;;
24337;SDS011;12457;50.832;4.346;2022-08-21T12:02:14;8.63;;;2.28;;
24337;SDS011;12457;50.832;4.346;2022-08-21T12:08:56;10.35;;;2.47;;
24337;SDS011;12457;50.832;4.346;2022-08-21T12:25:08;15.85;;;2.83;;
24337;SDS011;12457;50.832;4.346;2022-08-21T12:28:08;9.52;;;2.00;;
24337;SDS011;12457;50.832;4.346;2022-08-21T12:30:53;14.55;;;2.25;;
24337;SDS011;12457;50.832;4.346;2022-08-21T12:33:37;9.18;;;2.60;;
24337;SDS011;12457;50.832;4.346;2022-08-21T12:36:15;10.52;;;2.63;;
24337;SDS011;12457;50.832;4.346;2022-08-21T12:39:04;11.98;;;2.78;;
24337;SDS011;12457;50.832;4.346;2022-08-21T12:41:43;10.50;;;2.30;;
24337;SDS011;12457;50.832;4.346;2022-08-21T12:44:13;10.95;;;2.17;;
24337;SDS011;12457;50.832;4.346;2022-08-21T12:47:02;11.10;;;2.67;;
24337;SDS011;12457;50.832;4.346;2022-08-21T12:49:40;10.00;;;2.63;;
24337;SDS011;12457;50.832;4.346;2022-08-21T12:56:01;8.18;;;2.55;;
24337;SDS011;12457;50.832;4.346;2022-08-21T12:58:29;12.48;;;3.63;;
24337;SDS011;12457;50.832;4.346;2022-08-21T13:03:54;13.57;;;2.38;;
24337;SDS011;12457;50.832;4.346;2022-08-21T13:06:44;12.70;;;2.85;;
24337;SDS011;12457;50.832;4.346;2022-08-21T13:09:18;12.23;;;2.40;;
24337;SDS011;12457;50.832;4.346;2022-08-21T13:11:57;10.02;;;2.60;;
24337;SDS011;12457;50.832;4.346;2022-08-21T13:14:42;10.50;;;2.38;;
24337;SDS011;12457;50.832;4.346;2022-08-21T13:17:26;12.02;;;2.40;;
24337;SDS011;12457;50.832;4.346;2022-08-21T13:20:21;9.27;;;2.05;;
24337;SDS011;12457;50.832;4.346;2022-08-21T13:22:50;9.73;;;1.95;;
24337;SDS011;12457;50.832;4.346;2022-08-21T13:25:18;8.90;;;1.98;;
24337;SDS011;12457;50.832;4.346;2022-08-21T13:27:58;8.90;;;1.90;;
24337;SDS011;12457;50.832;4.346;2022-08-21T13:30:39;9.88;;;2.78;;
24337;SDS011;12457;50.832;4.346;2022-08-21T13:33:13;12.32;;;3.03;;
24337;SDS011;12457;50.832;4.346;2022-08-21T13:36:02;11.70;;;2.50;;
24337;SDS011;12457;50.832;4.346;2022-08-21T13:38:52;7.53;;;2.03;;
24337;SDS011;12457;50.832;4.346;2022-08-21T13:44:05;11.60;;;2.45;;
24337;SDS011;12457;50.832;4.346;2022-08-21T13:46:51;13.63;;;2.40;;
24337;SDS011;12457;50.832;4.346;2022-08-21T13:49:31;11.57;;;2.15;;
24337;SDS011;12457;50.832;4.346;2022-08-21T13:52:00;8.60;;;2.55;;
24337;SDS011;12457;50.832;4.346;2022-08-21T13:54:35;9.93;;;2.33;;
24337;SDS011;12457;50.832;4.346;2022-08-21T13:57:29;9.85;;;2.25;;
24337;SDS011;12457;50.832;4.346;2022-08-21T14:00:28;11.90;;;3.20;;
24337;SDS011;12457;50.832;4.346;2022-08-21T14:03:13;11.65;;;2.75;;
24337;SDS011;12457;50.832;4.346;2022-08-21T14:05:52;8.48;;;2.60;;
24337;SDS011;12457;50.832;4.346;2022-08-21T14:08:24;11.23;;;2.38;;
24337;SDS011;12457;50.832;4.346;2022-08-21T14:11:12;6.75;;;2.03;;
24337;SDS011;12457;50.832;4.346;2022-08-21T14:16:14;10.77;;;2.30;;
24337;SDS011;12457;50.832;4.346;2022-08-21T14:18:44;16.42;;;2.78;;
24337;SDS011;12457;50.832;4.346;2022-08-21T14:21:22;11.93;;;2.38;;
24337;SDS011;12457;50.832;4.346;2022-08-21T14:24:02;8.93;;;2.45;;
24337;SDS011;12457;50.832;4.346;2022-08-21T14:26:30;6.28;;;2.28;;
24337;SDS011;12457;50.832;4.346;2022-08-21T14:28:58;12.57;;;2.90;;
24337;SDS011;12457;50.832;4.346;2022-08-21T14:31:28;8.43;;;2.20;;
24337;SDS011;12457;50.832;4.346;2022-08-21T14:33:55;10.98;;;2.30;;
24337;SDS011;12457;50.832;4.346;2022-08-21T14:36:21;11.75;;;2.97;;
24337;SDS011;12457;50.832;4.346;2022-08-21T14:38:47;13.07;;;3.00;;
24337;SDS011;12457;50.832;4.346;2022-08-21T14:41:18;8.75;;;2.35;;
24337;SDS011;12457;50.832;4.346;2022-08-21T14:43:50;9.32;;;2.33;;
24337;SDS011;12457;50.832;4.346;2022-08-21T14:46:22;12.48;;;2.38;;
24337;SDS011;12457;50.832;4.346;2022-08-21T14:48:49;13.18;;;2.58;;
24337;SDS011;12457;50.832;4.346;2022-08-21T14:51:16;13.85;;;2.97;;
24337;SDS011;12457;50.832;4.346;2022-08-21T14:53:45;13.60;;;3.00;;
24337;SDS011;12457;50.832;4.346;2022-08-21T14:56:17;9.60;;;2.55;;
24337;SDS011;12457;50.832;4.346;2022-08-21T14:58:49;10.50;;;2.42;;
24337;SDS011;12457;50.832;4.346;2022-08-21T15:01:31;9.50;;;2.53;;
24337;SDS011;12457;50.832;4.346;2022-08-21T15:04:34;12.40;;;3.35;;
24337;SDS011;12457;50.832;4.346;2022-08-21T15:07:03;13.70;;;2.83;;
24337;SDS011;12457;50.832;4.346;2022-08-21T15:09:43;15.95;;;3.28;;
24337;SDS011;12457;50.832;4.346;2022-08-21T15:12:11;17.00;;;2.63;;
24337;SDS011;12457;50.832;4.346;2022-08-21T15:14:39;12.38;;;2.70;;
24337;SDS011;12457;50.832;4.346;2022-08-21T15:17:05;12.63;;;2.85;;
24337;SDS011;12457;50.832;4.346;2022-08-21T15:19:42;10.00;;;2.45;;
24337;SDS011;12457;50.832;4.346;2022-08-21T15:22:10;15.52;;;3.53;;
24337;SDS011;12457;50.832;4.346;2022-08-21T15:24:39;11.27;;;3.50;;
24337;SDS011;12457;50.832;4.346;2022-08-21T15:27:08;13.70;;;4.03;;
24337;SDS011;12457;50.832;4.346;2022-08-21T15:30:01;15.23;;;3.70;;
24337;SDS011;12457;50.832;4.346;2022-08-21T15:32:31;11.85;;;4.03;;
24337;SDS011;12457;50.832;4.346;2022-08-21T15:35:06;11.77;;;3.05;;
24337;SDS011;12457;50.832;4.346;2022-08-21T15:37:33;9.73;;;2.55;;
24337;SDS011;12457;50.832;4.346;2022-08-21T15:39:58;12.90;;;2.80;;
24337;SDS011;12457;50.832;4.346;2022-08-21T15:42:24;11.23;;;3.15;;
24337;SDS011;12457;50.832;4.346;2022-08-21T15:44:54;12.45;;;3.50;;
24337;SDS011;12457;50.832;4.346;2022-08-21T15:47:28;8.45;;;2.50;;
24337;SDS011;12457;50.832;4.346;2022-08-21T15:49:56;9.57;;;3.70;;
24337;SDS011;12457;50.832;4.346;2022-08-21T15:52:22;8.45;;;3.17;;
24337;SDS011;12457;50.832;4.346;2022-08-21T15:54:49;10.98;;;3.03;;
24337;SDS011;12457;50.832;4.346;2022-08-21T15:57:15;9.32;;;2.58;;
24337;SDS011;12457;50.832;4.346;2022-08-21T15:59:44;9.23;;;2.60;;
24337;SDS011;12457;50.832;4.346;2022-08-21T16:02:14;12.27;;;2.97;;
24337;SDS011;12457;50.832;4.346;2022-08-21T16:04:43;12.88;;;4.25;;
24337;SDS011;12457;50.832;4.346;2022-08-21T16:07:09;8.93;;;3.55;;
24337;SDS011;12457;50.832;4.346;2022-08-21T16:09:36;11.55;;;3.38;;
24337;SDS011;12457;50.832;4.346;2022-08-21T16:12:02;7.10;;;2.30;;
24337;SDS011;12457;50.832;4.346;2022-08-21T16:14:30;9.82;;;2.97;;
24337;SDS011;12457;50.832;4.346;2022-08-21T16:16:56;8.85;;;2.40;;
24337;SDS011;12457;50.832;4.346;2022-08-21T16:19:23;12.63;;;2.70;;
24337;SDS011;12457;50.832;4.346;2022-08-21T16:21:50;8.65;;;2.60;;
24337;SDS011;12457;50.832;4.346;2022-08-21T16:24:16;7.53;;;2.53;;
24337;SDS011;12457;50.832;4.346;2022-08-21T16:26:42;9.77;;;2.40;;
24337;SDS011;12457;50.832;4.346;2022-08-21T16:29:08;15.40;;;2.92;;
24337;SDS011;12457;50.832;4.346;2022-08-21T16:31:34;14.75;;;3.25;;
24337;SDS011;12457;50.832;4.346;2022-08-21T16:34:01;7.82;;;2.85;;
24337;SDS011;12457;50.832;4.346;2022-08-21T16:36:27;16.33;;;3.28;;
24337;SDS011;12457;50.832;4.346;2022-08-21T16:38:54;8.68;;;2.63;;
24337;SDS011;12457;50.832;4.346;2022-08-21T16:41:21;10.32;;;2.67;;
24337;SDS011;12457;50.832;4.346;2022-08-21T16:43:50;11.68;;;3.22;;
24337;SDS011;12457;50.832;4.346;2022-08-21T16:46:16;10.77;;;2.95;;
24337;SDS011;12457;50.832;4.346;2022-08-21T16:48:43;9.18;;;2.28;;
24337;SDS011;12457;50.832;4.346;2022-08-21T16:51:10;10.90;;;2.42;;
24337;SDS011;12457;50.832;4.346;2022-08-21T16:53:37;14.15;;;2.40;;
24337;SDS011;12457;50.832;4.346;2022-08-21T16:56:04;8.27;;;2.28;;
24337;SDS011;12457;50.832;4.346;2022-08-21T16:58:32;11.68;;;3.10;;
24337;SDS011;12457;50.832;4.346;2022-08-21T17:01:01;11.95;;;2.90;;
24337;SDS011;12457;50.832;4.346;2022-08-21T17:03:31;13.73;;;2.70;;
24337;SDS011;12457;50.832;4.346;2022-08-21T17:06:03;10.32;;;2.60;;
24337;SDS011;12457;50.832;4.346;2022-08-21T17:08:29;13.38;;;3.03;;
24337;SDS011;12457;50.832;4.346;2022-08-21T17:10:55;12.15;;;3.63;;
24337;SDS011;12457;50.832;4.346;2022-08-21T17:13:22;12.30;;;3.20;;
24337;SDS011;12457;50.832;4.346;2022-08-21T17:15:59;13.70;;;2.75;;
24337;SDS011;12457;50.832;4.346;2022-08-21T17:18:25;10.95;;;3.15;;
24337;SDS011;12457;50.832;4.346;2022-08-21T17:20:52;11.35;;;3.35;;
24337;SDS011;12457;50.832;4.346;2022-08-21T17:23:18;16.73;;;3.38;;
24337;SDS011;12457;50.832;4.346;2022-08-21T17:25:45;13.30;;;2.78;;
24337;SDS011;12457;50.832;4.346;2022-08-21T17:28:15;8.52;;;3.28;;
24337;SDS011;12457;50.832;4.346;2022-08-21T17:30:43;11.00;;;3.05;;
24337;SDS011;12457;50.832;4.346;2022-08-21T17:33:11;11.48;;;3.63;;
24337;SDS011;12457;50.832;4.346;2022-08-21T17:35:39;12.15;;;3.25;;
24337;SDS011;12457;50.832;4.346;2022-08-21T17:38:06;10.27;;;2.80;;
24337;SDS011;12457;50.832;4.346;2022-08-21T17:40:32;11.10;;;3.35;;